Morning Clara — 9V7564 — position and weather

sailwx.info

Track history (hours):
 
Tides and Currents Weather Stations Pressure Air Temp Water Temp Dewpoint Dewpoint Depression Visibility Wind Speed Wind Dir Waves Ship Positions

Morning Clara

Last reported at 2017-Jun-22 20:59 UTC. Time now 2017-Jun-29 07:32 UTC.
Position N 50°01' W 010°40'.

Length 200 m; draft 9.6 m.

Type: Cargo ship. MMSI: 564254000.

Date/timePositionNaut miles runAvg speedWind from/ knotsBaromVisibWave heightAir tempDewpointWater temp
2017-Jun-22 20:59N 50°01' W 010°40'918.0
2017-Jun-22 20:28N 50°05' W 010°26'1018.3
2017-Jun-22 19:56N 50°09' W 010°12'918.4
2017-Jun-22 19:28N 50°12' W 010°00'1018.4
2017-Jun-22 18:57N 50°16' W 009°46'1218.3
2017-Jun-22 18:18N 50°20' W 009°29'1617.9
2017-Jun-22 17:23N 50°27' W 009°06'717.6
2017-Jun-22 17:00N 50°29' W 008°55'917.5
2017-Jun-22 16:30N 50°33' W 008°43'917.4
2017-Jun-22 16:01N 50°36' W 008°31'1017.3
2017-Jun-22 15:27N 50°40' W 008°17'817.2
2017-Jun-22 15:00N 50°43' W 008°05'1717.4
2017-Jun-22 14:00N 50°49' W 007°40'917.6
2017-Jun-22 13:30N 50°53' W 007°27'917.8
2017-Jun-22 13:00N 50°56' W 007°14'918.1
2017-Jun-22 12:28N 50°60' W 007°00'6418.3
2017-Jun-22 08:58N 51°18' W 005°22'818.1
2017-Jun-22 08:30N 51°18' W 005°08'918.1
2017-Jun-22 08:01N 51°19' W 004°54'1018.7
2017-Jun-22 07:29N 51°19' W 004°39'4718.9
2017-Jun-22 05:00N 51°21' W 003°23'811.3
2017-Jun-22 04:17N 51°22' W 003°10'414.4
2017-Jun-22 04:00N 51°23' W 003°04'713.7
2017-Jun-22 03:30N 51°28' W 002°56'612.5
2017-Jun-22 03:00N 51°30' W 002°46'2 3.5
2017-Jun-22 02:29N 51°30' W 002°44'0 0.3
2017-Jun-22 01:59N 51°30' W 002°43'0 0.6
2017-Jun-22 01:29N 51°30' W 002°43'0 0.0
2017-Jun-22 00:59N 51°30' W 002°43'0 0.0
2017-Jun-22 00:29N 51°30' W 002°43'0 0.0
2017-Jun-21 23:59N 51°30' W 002°43'0 0.0
2017-Jun-21 23:29N 51°30' W 002°43'0 0.0
2017-Jun-21 22:59N 51°30' W 002°43'0 0.0
2017-Jun-21 22:29N 51°30' W 002°43'0 0.0
2017-Jun-21 21:59N 51°30' W 002°43'0 0.0
2017-Jun-21 21:29N 51°30' W 002°43'0 0.0
2017-Jun-21 20:59N 51°30' W 002°43'0 0.0
2017-Jun-21 20:29N 51°30' W 002°43'0 0.0
2017-Jun-21 19:59N 51°30' W 002°43'0 0.0
2017-Jun-21 19:29N 51°30' W 002°43'0 0.0
2017-Jun-21 18:59N 51°30' W 002°43'0 0.0
2017-Jun-21 18:29N 51°30' W 002°43'0 0.0
2017-Jun-21 17:59N 51°30' W 002°43'0 0.0
2017-Jun-21 17:29N 51°30' W 002°43'0 0.0
2017-Jun-21 16:59N 51°30' W 002°43'0 0.0
2017-Jun-21 16:29N 51°30' W 002°43'0 0.0
2017-Jun-21 15:59N 51°30' W 002°43'0 0.0
2017-Jun-21 15:29N 51°30' W 002°43'0 0.0
2017-Jun-21 14:59N 51°30' W 002°43'0 0.0
2017-Jun-21 14:29N 51°30' W 002°43'0 0.0
2017-Jun-21 13:29N 51°30' W 002°43'0 0.0
2017-Jun-21 12:59N 51°30' W 002°43'0 0.0
2017-Jun-21 12:29N 51°30' W 002°43'0 0.0
2017-Jun-21 11:59N 51°30' W 002°43'0 0.0
2017-Jun-21 11:29N 51°30' W 002°43'0 0.0
2017-Jun-21 10:59N 51°30' W 002°43'0 0.0
2017-Jun-21 10:29N 51°30' W 002°43'0 0.0
2017-Jun-21 09:59N 51°30' W 002°43'0 0.0
2017-Jun-21 09:29N 51°30' W 002°43'0 0.0
2017-Jun-21 08:59N 51°30' W 002°43'0 0.0
2017-Jun-21 08:29N 51°30' W 002°43'0 0.0
2017-Jun-21 07:59N 51°30' W 002°43'0 0.0
2017-Jun-21 07:29N 51°30' W 002°43'0 0.0
2017-Jun-21 06:59N 51°30' W 002°43'0 0.0
2017-Jun-21 06:29N 51°30' W 002°43'0 0.0
2017-Jun-21 05:59N 51°30' W 002°43'0 0.0
2017-Jun-21 05:29N 51°30' W 002°43'0 0.0
2017-Jun-21 04:59N 51°30' W 002°43'0 0.0
2017-Jun-21 04:29N 51°30' W 002°43'0 0.1
2017-Jun-21 04:01N 51°30' W 002°43'0 0.7
2017-Jun-21 03:31N 51°30' W 002°43'1 1.9
2017-Jun-21 03:01N 51°30' W 002°45'5 9.7
2017-Jun-21 02:30N 51°28' W 002°52'612.9
2017-Jun-21 02:01N 51°25' W 003°01'713.3
2017-Jun-21 01:29N 51°21' W 003°10'610.0
2017-Jun-21 00:56N 51°21' W 003°19'6 6.6
2017-Jun-20 23:58N 51°21' W 003°30'4 8.6
2017-Jun-20 23:28N 51°20' W 003°36'614.1
2017-Jun-20 23:01N 51°20' W 003°47'917.1
2017-Jun-20 22:30N 51°20' W 004°00'916.6
2017-Jun-20 21:58N 51°20' W 004°15'816.5
2017-Jun-20 21:29N 51°20' W 004°27'815.9
2017-Jun-20 20:59N 51°19' W 004°40'815.7
2017-Jun-20 20:29N 51°19' W 004°53'815.9
2017-Jun-20 20:00N 51°19' W 005°05'816.0
2017-Jun-20 19:30N 51°18' W 005°18'714.9
2017-Jun-20 19:00N 51°14' W 005°27'816.0
2017-Jun-20 18:30N 51°06' W 005°31'816.1
2017-Jun-20 18:01N 50°58' W 005°35'815.9
2017-Jun-20 17:30N 50°51' W 005°39'816.0
2017-Jun-20 17:00N 50°43' W 005°42'816.0
2017-Jun-20 16:31N 50°35' W 005°45'816.0
2017-Jun-20 16:01N 50°28' W 005°50'816.0
2017-Jun-20 15:30N 50°20' W 005°53'816.0
2017-Jun-20 15:00N 50°12' W 005°53'816.1
2017-Jun-20 14:30N 50°04' W 005°54'2013.1
2017-Jun-20 12:59N 49°49' W 005°34'816.0
2017-Jun-20 12:29N 49°47' W 005°22'816.1
2017-Jun-20 12:00N 49°46' W 005°11'816.2
2017-Jun-20 11:30N 49°46' W 004°58'816.4
2017-Jun-20 11:00N 49°47' W 004°45'917.1
2017-Jun-20 10:30N 49°46' W 004°32'917.3
2017-Jun-20 10:00N 49°47' W 004°19'917.7
2017-Jun-20 09:30N 49°49' W 004°06'918.0
2017-Jun-20 09:00N 49°51' W 003°52'918.1
2017-Jun-20 08:30N 49°53' W 003°38'918.1
2017-Jun-20 08:01N 49°55' W 003°24'917.8
2017-Jun-20 07:30N 49°56' W 003°11'917.3
2017-Jun-20 07:00N 49°58' W 002°58'917.1
2017-Jun-20 06:30N 50°01' W 002°45'5716.0
2017-Jun-20 02:56N 50°16' W 001°19'716.1
2017-Jun-20 02:30N 50°18' W 001°08'816.3
2017-Jun-20 02:00N 50°20' W 000°56'1316.9
2017-Jun-20 01:15N 50°23' W 000°37'417.4
2017-Jun-20 01:00N 50°24' W 000°30'917.9
2017-Jun-20 00:30N 50°27' W 000°17'918.3
2017-Jun-20 00:00N 50°29' W 000°03'918.5
2017-Jun-19 23:31N 50°32' E 000°11'918.5
2017-Jun-19 23:00N 50°34' E 000°25'918.2
2017-Jun-19 22:30N 50°38' E 000°38'917.8
2017-Jun-19 22:00N 50°43' E 000°50'917.1
2017-Jun-19 21:30N 50°48' E 001°01'816.7
2017-Jun-19 21:00N 50°54' E 001°10'816.0
2017-Jun-19 20:30N 50°60' E 001°18'815.6
2017-Jun-19 20:00N 51°05' E 001°28'815.7
2017-Jun-19 19:30N 51°09' E 001°38'815.7
2017-Jun-19 19:00N 51°15' E 001°46'816.0
2017-Jun-19 18:30N 51°22' E 001°54'714.1
2017-Jun-19 18:00N 51°24' E 002°04'816.5
2017-Jun-19 17:30N 51°20' E 002°16'917.1
2017-Jun-19 17:01N 51°23' E 002°30'816.7
2017-Jun-19 16:30N 51°22' E 002°43'713.8
2017-Jun-19 16:00N 51°23' E 002°54'816.6
2017-Jun-19 15:30N 51°24' E 003°07'510.2
2017-Jun-19 15:00N 51°20' E 003°13'0 0.3
2017-Jun-19 14:00N 51°20' E 003°13'0 0.0
2017-Jun-19 13:30N 51°20' E 003°13'1 1.6
2017-Jun-19 13:00N 51°19' E 003°13'0 0.9
2017-Jun-19 12:29N 51°19' E 003°14'0 0.0
2017-Jun-19 11:59N 51°19' E 003°14'0 0.0
2017-Jun-19 11:29N 51°19' E 003°14'0 0.0
2017-Jun-19 11:00N 51°19' E 003°14'0 0.0
2017-Jun-19 10:29N 51°19' E 003°14'0 0.0
2017-Jun-19 09:59N 51°19' E 003°14'0 0.0
2017-Jun-19 09:29N 51°19' E 003°14'0 0.0
2017-Jun-19 08:59N 51°19' E 003°14'0 0.0
2017-Jun-19 08:29N 51°19' E 003°14'0 0.0
2017-Jun-19 07:59N 51°19' E 003°14'0 0.0
2017-Jun-19 07:29N 51°19' E 003°14'0 0.0
2017-Jun-19 06:59N 51°19' E 003°14'0 0.0
2017-Jun-19 06:29N 51°19' E 003°14'0 0.0
2017-Jun-19 05:59N 51°19' E 003°14'0 0.0
2017-Jun-19 05:29N 51°19' E 003°14'0 0.0
2017-Jun-19 04:59N 51°19' E 003°14'0 0.0
2017-Jun-19 04:29N 51°19' E 003°14'0 0.0
2017-Jun-19 03:59N 51°19' E 003°14'0 0.0
2017-Jun-19 03:29N 51°19' E 003°14'0 0.0
2017-Jun-19 02:59N 51°19' E 003°14'0 0.0
2017-Jun-19 02:29N 51°19' E 003°14'0 0.0
2017-Jun-19 01:59N 51°19' E 003°14'0 0.0
2017-Jun-19 01:29N 51°19' E 003°14'0 0.0
2017-Jun-19 00:59N 51°19' E 003°14'0 0.0
2017-Jun-19 00:29N 51°19' E 003°14'0 0.0
2017-Jun-18 23:59N 51°19' E 003°14'0 0.0
2017-Jun-18 23:29N 51°19' E 003°14'0 0.0
2017-Jun-18 22:59N 51°19' E 003°14'0 0.0
2017-Jun-18 22:29N 51°19' E 003°14'0 0.0
2017-Jun-18 21:59N 51°19' E 003°14'0 0.0
2017-Jun-18 21:29N 51°19' E 003°14'0 0.0
2017-Jun-18 20:59N 51°19' E 003°14'0 0.0
2017-Jun-18 20:29N 51°19' E 003°14'0 0.0
2017-Jun-18 19:59N 51°19' E 003°14'0 0.0
2017-Jun-18 19:29N 51°19' E 003°14'0 0.0
2017-Jun-18 18:59N 51°19' E 003°14'0 0.0
2017-Jun-18 18:29N 51°19' E 003°14'0 0.0
2017-Jun-18 17:59N 51°19' E 003°14'0 0.0
2017-Jun-18 17:29N 51°19' E 003°14'0 0.0
2017-Jun-18 16:59N 51°19' E 003°14'0 0.0
2017-Jun-18 16:29N 51°19' E 003°14'0 0.0
2017-Jun-18 15:59N 51°19' E 003°14'0 0.0
2017-Jun-18 15:29N 51°19' E 003°14'0 0.0
2017-Jun-18 14:59N 51°19' E 003°14'0 0.0
2017-Jun-18 13:59N 51°19' E 003°14'0 0.0
2017-Jun-18 13:29N 51°19' E 003°14'0 0.0
2017-Jun-18 12:59N 51°19' E 003°14'0 0.0
2017-Jun-18 12:29N 51°19' E 003°14'0 0.0
2017-Jun-18 11:59N 51°19' E 003°14'0 0.0
2017-Jun-18 11:29N 51°19' E 003°14'0 0.0
2017-Jun-18 10:59N 51°19' E 003°14'0 0.0
2017-Jun-18 10:29N 51°19' E 003°14'0 0.0
2017-Jun-18 09:59N 51°19' E 003°14'0 0.0
2017-Jun-18 09:29N 51°19' E 003°14'0 0.0
2017-Jun-18 08:59N 51°19' E 003°14'0 0.0
2017-Jun-18 08:29N 51°19' E 003°14'0 0.0
2017-Jun-18 07:59N 51°19' E 003°14'0 0.0
2017-Jun-18 07:29N 51°19' E 003°14'0 0.0
2017-Jun-18 06:59N 51°19' E 003°14'0 0.0
2017-Jun-18 06:29N 51°19' E 003°14'0 0.0
2017-Jun-18 05:59N 51°19' E 003°14'0 0.0
2017-Jun-18 05:29N 51°19' E 003°14'0 0.0
2017-Jun-18 04:59N 51°19' E 003°14'0 0.0
2017-Jun-18 04:26N 51°19' E 003°14'0 0.0
2017-Jun-18 03:59N 51°19' E 003°14'0 0.0
2017-Jun-18 03:29N 51°19' E 003°14'0 0.0
2017-Jun-18 02:59N 51°19' E 003°14'0 0.0
2017-Jun-18 02:29N 51°19' E 003°14'0 0.0
2017-Jun-18 01:59N 51°19' E 003°14'0 0.0
2017-Jun-18 01:29N 51°19' E 003°14'0 0.0
2017-Jun-18 00:59N 51°19' E 003°14'0 0.0
2017-Jun-18 00:29N 51°19' E 003°14'0 0.0
2017-Jun-17 23:59N 51°19' E 003°14'0 0.0
2017-Jun-17 23:29N 51°19' E 003°14'0 0.0
2017-Jun-17 23:00N 51°19' E 003°14'1 2.5
2017-Jun-17 22:30N 51°20' E 003°13'0 0.0
2017-Jun-17 22:00N 51°20' E 003°13'0 0.4
2017-Jun-17 21:30N 51°20' E 003°13'3 5.3
2017-Jun-17 21:00N 51°22' E 003°10'611.0
2017-Jun-17 20:30N 51°24' E 003°02'511.0
2017-Jun-17 20:00N 51°22' E 002°55'5 9.1
2017-Jun-17 19:30N 51°22' E 002°47'5 9.1
2017-Jun-17 19:00N 51°22' E 002°40'4 7.7
2017-Jun-17 18:30N 51°22' E 002°34'3 6.4
2017-Jun-17 18:00N 51°25' E 002°31'4 8.8
2017-Jun-17 17:30N 51°29' E 002°35'510.9
2017-Jun-17 17:00N 51°34' E 002°38'611.0
2017-Jun-17 16:30N 51°39' E 002°39'4718.0
2017-Jun-17 13:52N 52°22' E 003°13'2419.7
2017-Jun-17 12:37N 52°41' E 003°38'519.3
2017-Jun-17 12:21N 52°45' E 003°43'1318.8
2017-Jun-17 11:40N 52°56' E 003°57'318.4
2017-Jun-17 11:29N 52°58' E 004°00'3717.4
2017-Jun-17 09:23N 53°28' E 004°36'717.6
2017-Jun-17 08:59N 53°31' E 004°46'917.9
2017-Jun-17 08:29N 53°34' E 005°00'918.3
2017-Jun-17 07:59N 53°38' E 005°15'10216.5
2017-Jun-17 01:47N 53°49' E 008°07'414.4
2017-Jun-17 01:30N 53°46' E 008°11'714.0
2017-Jun-17 01:00N 53°42' E 008°20'612.0
2017-Jun-17 00:30N 53°38' E 008°28'4 8.4
2017-Jun-17 00:00N 53°34' E 008°32'1 1.0
2017-Jun-16 23:30N 53°34' E 008°33'0 0.5
2017-Jun-16 23:00N 53°34' E 008°33'0 0.5
2017-Jun-16 22:29N 53°35' E 008°33'0 0.0
2017-Jun-16 21:53N 53°35' E 008°33'0 0.0
2017-Jun-16 21:29N 53°35' E 008°33'0 0.0
2017-Jun-16 20:59N 53°35' E 008°33'0 0.0
2017-Jun-16 20:29N 53°35' E 008°33'0 0.0
2017-Jun-16 19:59N 53°35' E 008°33'0 0.0
2017-Jun-16 19:29N 53°35' E 008°33'0 0.0
2017-Jun-16 18:59N 53°35' E 008°33'0 0.0
2017-Jun-16 18:29N 53°35' E 008°33'0 0.0
2017-Jun-16 17:59N 53°35' E 008°33'0 0.0
2017-Jun-16 17:29N 53°35' E 008°33'0 0.0
2017-Jun-16 16:59N 53°35' E 008°33'0 0.0
2017-Jun-16 16:29N 53°35' E 008°33'0 0.0
2017-Jun-16 15:59N 53°35' E 008°33'0 0.0
2017-Jun-16 15:29N 53°35' E 008°33'0 0.0
2017-Jun-16 14:59N 53°35' E 008°33'0 0.0
2017-Jun-16 14:29N 53°35' E 008°33'0 0.0
2017-Jun-16 13:29N 53°35' E 008°33'0 0.0
2017-Jun-16 12:59N 53°35' E 008°33'0 0.0
2017-Jun-16 12:29N 53°35' E 008°33'0 0.0
2017-Jun-16 11:59N 53°35' E 008°33'0 0.0
2017-Jun-16 11:29N 53°35' E 008°33'0 0.0
2017-Jun-16 10:59N 53°35' E 008°33'0 0.0
2017-Jun-16 10:29N 53°35' E 008°33'0 0.0
2017-Jun-16 09:59N 53°35' E 008°33'0 0.0
2017-Jun-16 09:29N 53°35' E 008°33'0 0.0
2017-Jun-16 08:59N 53°35' E 008°33'0 0.0
2017-Jun-16 08:29N 53°35' E 008°33'0 0.0
2017-Jun-16 07:59N 53°35' E 008°33'0 0.0
2017-Jun-16 07:26N 53°35' E 008°33'0 0.0
2017-Jun-16 06:59N 53°35' E 008°33'0 0.0
2017-Jun-16 06:29N 53°35' E 008°33'0 0.0
2017-Jun-16 05:56N 53°35' E 008°33'0 0.0
2017-Jun-16 05:29N 53°35' E 008°33'0 0.0
2017-Jun-16 04:59N 53°35' E 008°33'0 0.0
2017-Jun-16 04:29N 53°35' E 008°33'0 0.0
2017-Jun-16 03:59N 53°35' E 008°33'0 0.0
2017-Jun-16 03:29N 53°35' E 008°33'0 0.0
2017-Jun-16 02:59N 53°35' E 008°33'0 0.0
2017-Jun-16 02:29N 53°35' E 008°33'0 0.0
2017-Jun-16 01:59N 53°35' E 008°33'0 0.0
2017-Jun-16 01:29N 53°35' E 008°33'0 0.0
2017-Jun-16 00:59N 53°35' E 008°33'0 0.5
2017-Jun-16 00:30N 53°34' E 008°33'0 0.5
2017-Jun-16 00:00N 53°34' E 008°33'0 0.8
2017-Jun-15 23:30N 53°34' E 008°33'4 8.6
2017-Jun-15 23:00N 53°37' E 008°28'713.3
2017-Jun-15 22:30N 53°42' E 008°20'714.7
2017-Jun-15 22:00N 53°46' E 008°10'815.6
2017-Jun-15 21:30N 53°51' E 007°60'713.4
2017-Jun-15 21:00N 53°53' E 007°49'4 8.0
2017-Jun-15 20:30N 53°54' E 007°42'5 9.2
2017-Jun-15 20:00N 53°58' E 007°38'5 9.2
2017-Jun-15 19:29N 54°00' E 007°31'3 6.1
2017-Jun-15 18:59N 54°01' E 007°26'1 2.0
2017-Jun-15 18:28N 54°01' E 007°24'0 0.0
2017-Jun-15 07:28N 54°01' E 007°24'0 0.0
2017-Jun-15 06:55N 54°01' E 007°24'0 0.0
2017-Jun-15 06:28N 54°01' E 007°24'69 2.7
2017-Jun-14 04:34N 53°37' E 005°35'216.1
2017-Jun-14 04:25N 53°36' E 005°31'1115.9
2017-Jun-14 03:44N 53°32' E 005°14'815.8
2017-Jun-14 03:15N 53°29' E 005°02'415.9
2017-Jun-14 02:58N 53°27' E 004°55'715.6
2017-Jun-14 02:31N 53°24' E 004°44'816.0
2017-Jun-14 02:00N 53°18' E 004°37'816.0
2017-Jun-14 01:30N 53°11' E 004°30'816.0
2017-Jun-14 01:00N 53°04' E 004°24'816.0
2017-Jun-14 00:30N 52°56' E 004°18'816.0
2017-Jun-14 00:01N 52°49' E 004°12'815.9
2017-Jun-13 23:31N 52°43' E 004°04'815.9
2017-Jun-13 23:00N 52°37' E 003°55'816.0
2017-Jun-13 22:30N 52°31' E 003°46'816.1
2017-Jun-13 22:00N 52°26' E 003°36'816.4
2017-Jun-13 21:31N 52°20' E 003°27'916.6
2017-Jun-13 21:00N 52°14' E 003°17'816.9
2017-Jun-13 20:30N 52°08' E 003°07'817.1
2017-Jun-13 20:01N 52°02' E 002°59'2617.5
2017-Jun-13 18:33N 51°42' E 002°32'417.9
2017-Jun-13 18:20N 51°39' E 002°28'618.0
2017-Jun-13 18:01N 51°35' E 002°22'918.4
2017-Jun-13 17:30N 51°27' E 002°14'918.0
2017-Jun-13 17:01N 51°19' E 002°08'917.9
2017-Jun-13 16:31N 51°12' E 001°59'918.7
2017-Jun-13 16:01N 51°07' E 001°46'1019.2
2017-Jun-13 15:31N 51°00' E 001°35'1019.4
2017-Jun-13 15:01N 50°53' E 001°26'1018.9
2017-Jun-13 14:30N 50°44' E 001°22'3417.3
2017-Jun-13 12:31N 50°26' E 000°36'018.4
2017-Jun-13 12:30N 50°26' E 000°35'918.5
2017-Jun-13 12:00N 50°24' E 000°21'918.9
2017-Jun-13 11:31N 50°21' E 000°07'1019.2
2017-Jun-13 11:01N 50°19' W 000°07'1019.7
2017-Jun-13 10:31N 50°16' W 000°22'1121.0
2017-Jun-13 10:01N 50°14' W 000°38'1121.2
2017-Jun-13 09:31N 50°11' W 000°54'1121.4
2017-Jun-13 09:01N 50°08' W 001°10'1121.6
2017-Jun-13 08:30N 50°05' W 001°27'1121.2
2017-Jun-13 08:01N 50°03' W 001°43'1020.7
2017-Jun-13 07:30N 50°00' W 001°58'1019.9
2017-Jun-13 07:00N 49°57' W 002°13'1119.4
2017-Jun-13 06:27N 49°54' W 002°29'919.0
2017-Jun-13 05:59N 49°52' W 002°42'918.9
2017-Jun-13 05:30N 49°49' W 002°56'918.9
2017-Jun-13 05:00N 49°47' W 003°10'918.7
2017-Jun-13 04:31N 49°45' W 003°24'918.5
2017-Jun-13 04:01N 49°43' W 003°38'1018.5
2017-Jun-13 03:28N 49°40' W 003°53'1418.4
2017-Jun-13 02:44N 49°37' W 004°13'618.5
2017-Jun-13 02:26N 49°36' W 004°22'818.4
2017-Jun-13 02:00N 49°34' W 004°34'918.4
2017-Jun-13 01:30N 49°32' W 004°48'1018.3
2017-Jun-13 00:59N 49°30' W 005°02'918.3
2017-Jun-13 00:30N 49°29' W 005°15'1618.4
2017-Jun-12 23:40N 49°26' W 005°39'318.5
2017-Jun-12 23:31N 49°26' W 005°43'1118.4
2017-Jun-12 22:53N 49°23' W 006°00'818.7
2017-Jun-12 22:27N 49°22' W 006°12'  
Track history (hours):
 
Tides and Currents Weather Stations Pressure Air Temp Water Temp Dewpoint Dewpoint Depression Visibility Wind Speed Wind Dir Waves Ship Positions

Morning Clara

Last reported at 2017-Jun-22 20:59 UTC. Time now 2017-Jun-29 07:32 UTC.
Position N 50°01' W 010°40'.

Length 200 m; draft 9.6 m.

Type: Cargo ship. MMSI: 564254000.

Date/timePositionNaut miles runAvg speedWind from/ knotsBaromVisibWave heightAir tempDewpointWater temp
2017-Jun-22 20:59N 50°01' W 010°40'918.0
2017-Jun-22 20:28N 50°05' W 010°26'1018.3
2017-Jun-22 19:56N 50°09' W 010°12'918.4
2017-Jun-22 19:28N 50°12' W 010°00'1018.4
2017-Jun-22 18:57N 50°16' W 009°46'1218.3
2017-Jun-22 18:18N 50°20' W 009°29'1617.9
2017-Jun-22 17:23N 50°27' W 009°06'717.6
2017-Jun-22 17:00N 50°29' W 008°55'917.5
2017-Jun-22 16:30N 50°33' W 008°43'917.4
2017-Jun-22 16:01N 50°36' W 008°31'1017.3
2017-Jun-22 15:27N 50°40' W 008°17'817.2
2017-Jun-22 15:00N 50°43' W 008°05'1717.4
2017-Jun-22 14:00N 50°49' W 007°40'917.6
2017-Jun-22 13:30N 50°53' W 007°27'917.8
2017-Jun-22 13:00N 50°56' W 007°14'918.1
2017-Jun-22 12:28N 50°60' W 007°00'6418.3
2017-Jun-22 08:58N 51°18' W 005°22'818.1
2017-Jun-22 08:30N 51°18' W 005°08'918.1
2017-Jun-22 08:01N 51°19' W 004°54'1018.7
2017-Jun-22 07:29N 51°19' W 004°39'4718.9
2017-Jun-22 05:00N 51°21' W 003°23'811.3
2017-Jun-22 04:17N 51°22' W 003°10'414.4
2017-Jun-22 04:00N 51°23' W 003°04'713.7
2017-Jun-22 03:30N 51°28' W 002°56'612.5
2017-Jun-22 03:00N 51°30' W 002°46'2 3.5
2017-Jun-22 02:29N 51°30' W 002°44'0 0.3
2017-Jun-22 01:59N 51°30' W 002°43'0 0.6
2017-Jun-22 01:29N 51°30' W 002°43'0 0.0
2017-Jun-22 00:59N 51°30' W 002°43'0 0.0
2017-Jun-22 00:29N 51°30' W 002°43'0 0.0
2017-Jun-21 23:59N 51°30' W 002°43'0 0.0
2017-Jun-21 23:29N 51°30' W 002°43'0 0.0
2017-Jun-21 22:59N 51°30' W 002°43'0 0.0
2017-Jun-21 22:29N 51°30' W 002°43'0 0.0
2017-Jun-21 21:59N 51°30' W 002°43'0 0.0
2017-Jun-21 21:29N 51°30' W 002°43'0 0.0
2017-Jun-21 20:59N 51°30' W 002°43'0 0.0
2017-Jun-21 20:29N 51°30' W 002°43'0 0.0
2017-Jun-21 19:59N 51°30' W 002°43'0 0.0
2017-Jun-21 19:29N 51°30' W 002°43'0 0.0
2017-Jun-21 18:59N 51°30' W 002°43'0 0.0
2017-Jun-21 18:29N 51°30' W 002°43'0 0.0
2017-Jun-21 17:59N 51°30' W 002°43'0 0.0
2017-Jun-21 17:29N 51°30' W 002°43'0 0.0
2017-Jun-21 16:59N 51°30' W 002°43'0 0.0
2017-Jun-21 16:29N 51°30' W 002°43'0 0.0
2017-Jun-21 15:59N 51°30' W 002°43'0 0.0
2017-Jun-21 15:29N 51°30' W 002°43'0 0.0
2017-Jun-21 14:59N 51°30' W 002°43'0 0.0
2017-Jun-21 14:29N 51°30' W 002°43'0 0.0
2017-Jun-21 13:29N 51°30' W 002°43'0 0.0
2017-Jun-21 12:59N 51°30' W 002°43'0 0.0
2017-Jun-21 12:29N 51°30' W 002°43'0 0.0
2017-Jun-21 11:59N 51°30' W 002°43'0 0.0
2017-Jun-21 11:29N 51°30' W 002°43'0 0.0
2017-Jun-21 10:59N 51°30' W 002°43'0 0.0
2017-Jun-21 10:29N 51°30' W 002°43'0 0.0
2017-Jun-21 09:59N 51°30' W 002°43'0 0.0
2017-Jun-21 09:29N 51°30' W 002°43'0 0.0
2017-Jun-21 08:59N 51°30' W 002°43'0 0.0
2017-Jun-21 08:29N 51°30' W 002°43'0 0.0
2017-Jun-21 07:59N 51°30' W 002°43'0 0.0
2017-Jun-21 07:29N 51°30' W 002°43'0 0.0
2017-Jun-21 06:59N 51°30' W 002°43'0 0.0
2017-Jun-21 06:29N 51°30' W 002°43'0 0.0
2017-Jun-21 05:59N 51°30' W 002°43'0 0.0
2017-Jun-21 05:29N 51°30' W 002°43'0 0.0
2017-Jun-21 04:59N 51°30' W 002°43'0 0.0
2017-Jun-21 04:29N 51°30' W 002°43'0 0.1
2017-Jun-21 04:01N 51°30' W 002°43'0 0.7
2017-Jun-21 03:31N 51°30' W 002°43'1 1.9
2017-Jun-21 03:01N 51°30' W 002°45'5 9.7
2017-Jun-21 02:30N 51°28' W 002°52'612.9
2017-Jun-21 02:01N 51°25' W 003°01'713.3
2017-Jun-21 01:29N 51°21' W 003°10'610.0
2017-Jun-21 00:56N 51°21' W 003°19'6 6.6
2017-Jun-20 23:58N 51°21' W 003°30'4 8.6
2017-Jun-20 23:28N 51°20' W 003°36'614.1
2017-Jun-20 23:01N 51°20' W 003°47'917.1
2017-Jun-20 22:30N 51°20' W 004°00'916.6
2017-Jun-20 21:58N 51°20' W 004°15'816.5
2017-Jun-20 21:29N 51°20' W 004°27'815.9
2017-Jun-20 20:59N 51°19' W 004°40'815.7
2017-Jun-20 20:29N 51°19' W 004°53'815.9
2017-Jun-20 20:00N 51°19' W 005°05'816.0
2017-Jun-20 19:30N 51°18' W 005°18'714.9
2017-Jun-20 19:00N 51°14' W 005°27'816.0
2017-Jun-20 18:30N 51°06' W 005°31'816.1
2017-Jun-20 18:01N 50°58' W 005°35'815.9
2017-Jun-20 17:30N 50°51' W 005°39'816.0
2017-Jun-20 17:00N 50°43' W 005°42'816.0
2017-Jun-20 16:31N 50°35' W 005°45'816.0
2017-Jun-20 16:01N 50°28' W 005°50'816.0
2017-Jun-20 15:30N 50°20' W 005°53'816.0
2017-Jun-20 15:00N 50°12' W 005°53'816.1
2017-Jun-20 14:30N 50°04' W 005°54'2013.1
2017-Jun-20 12:59N 49°49' W 005°34'816.0
2017-Jun-20 12:29N 49°47' W 005°22'816.1
2017-Jun-20 12:00N 49°46' W 005°11'816.2
2017-Jun-20 11:30N 49°46' W 004°58'816.4
2017-Jun-20 11:00N 49°47' W 004°45'917.1
2017-Jun-20 10:30N 49°46' W 004°32'917.3
2017-Jun-20 10:00N 49°47' W 004°19'917.7
2017-Jun-20 09:30N 49°49' W 004°06'918.0
2017-Jun-20 09:00N 49°51' W 003°52'918.1
2017-Jun-20 08:30N 49°53' W 003°38'918.1
2017-Jun-20 08:01N 49°55' W 003°24'917.8
2017-Jun-20 07:30N 49°56' W 003°11'917.3
2017-Jun-20 07:00N 49°58' W 002°58'917.1
2017-Jun-20 06:30N 50°01' W 002°45'5716.0
2017-Jun-20 02:56N 50°16' W 001°19'716.1
2017-Jun-20 02:30N 50°18' W 001°08'816.3
2017-Jun-20 02:00N 50°20' W 000°56'1316.9
2017-Jun-20 01:15N 50°23' W 000°37'417.4
2017-Jun-20 01:00N 50°24' W 000°30'917.9
2017-Jun-20 00:30N 50°27' W 000°17'918.3
2017-Jun-20 00:00N 50°29' W 000°03'918.5
2017-Jun-19 23:31N 50°32' E 000°11'918.5
2017-Jun-19 23:00N 50°34' E 000°25'918.2
2017-Jun-19 22:30N 50°38' E 000°38'917.8
2017-Jun-19 22:00N 50°43' E 000°50'917.1
2017-Jun-19 21:30N 50°48' E 001°01'816.7
2017-Jun-19 21:00N 50°54' E 001°10'816.0
2017-Jun-19 20:30N 50°60' E 001°18'815.6
2017-Jun-19 20:00N 51°05' E 001°28'815.7
2017-Jun-19 19:30N 51°09' E 001°38'815.7
2017-Jun-19 19:00N 51°15' E 001°46'816.0
2017-Jun-19 18:30N 51°22' E 001°54'714.1
2017-Jun-19 18:00N 51°24' E 002°04'816.5
2017-Jun-19 17:30N 51°20' E 002°16'917.1
2017-Jun-19 17:01N 51°23' E 002°30'816.7
2017-Jun-19 16:30N 51°22' E 002°43'713.8
2017-Jun-19 16:00N 51°23' E 002°54'816.6
2017-Jun-19 15:30N 51°24' E 003°07'510.2
2017-Jun-19 15:00N 51°20' E 003°13'0 0.3
2017-Jun-19 14:00N 51°20' E 003°13'0 0.0
2017-Jun-19 13:30N 51°20' E 003°13'1 1.6
2017-Jun-19 13:00N 51°19' E 003°13'0 0.9
2017-Jun-19 12:29N 51°19' E 003°14'0 0.0
2017-Jun-19 11:59N 51°19' E 003°14'0 0.0
2017-Jun-19 11:29N 51°19' E 003°14'0 0.0
2017-Jun-19 11:00N 51°19' E 003°14'0 0.0
2017-Jun-19 10:29N 51°19' E 003°14'0 0.0
2017-Jun-19 09:59N 51°19' E 003°14'0 0.0
2017-Jun-19 09:29N 51°19' E 003°14'0 0.0
2017-Jun-19 08:59N 51°19' E 003°14'0 0.0
2017-Jun-19 08:29N 51°19' E 003°14'0 0.0
2017-Jun-19 07:59N 51°19' E 003°14'0 0.0
2017-Jun-19 07:29N 51°19' E 003°14'0 0.0
2017-Jun-19 06:59N 51°19' E 003°14'0 0.0
2017-Jun-19 06:29N 51°19' E 003°14'0 0.0
2017-Jun-19 05:59N 51°19' E 003°14'0 0.0
2017-Jun-19 05:29N 51°19' E 003°14'0 0.0
2017-Jun-19 04:59N 51°19' E 003°14'0 0.0
2017-Jun-19 04:29N 51°19' E 003°14'0 0.0
2017-Jun-19 03:59N 51°19' E 003°14'0 0.0
2017-Jun-19 03:29N 51°19' E 003°14'0 0.0
2017-Jun-19 02:59N 51°19' E 003°14'0 0.0
2017-Jun-19 02:29N 51°19' E 003°14'0 0.0
2017-Jun-19 01:59N 51°19' E 003°14'0 0.0
2017-Jun-19 01:29N 51°19' E 003°14'0 0.0
2017-Jun-19 00:59N 51°19' E 003°14'0 0.0
2017-Jun-19 00:29N 51°19' E 003°14'0 0.0
2017-Jun-18 23:59N 51°19' E 003°14'0 0.0
2017-Jun-18 23:29N 51°19' E 003°14'0 0.0
2017-Jun-18 22:59N 51°19' E 003°14'0 0.0
2017-Jun-18 22:29N 51°19' E 003°14'0 0.0
2017-Jun-18 21:59N 51°19' E 003°14'0 0.0
2017-Jun-18 21:29N 51°19' E 003°14'0 0.0
2017-Jun-18 20:59N 51°19' E 003°14'0 0.0
2017-Jun-18 20:29N 51°19' E 003°14'0 0.0
2017-Jun-18 19:59N 51°19' E 003°14'0 0.0
2017-Jun-18 19:29N 51°19' E 003°14'0 0.0
2017-Jun-18 18:59N 51°19' E 003°14'0 0.0
2017-Jun-18 18:29N 51°19' E 003°14'0 0.0
2017-Jun-18 17:59N 51°19' E 003°14'0 0.0
2017-Jun-18 17:29N 51°19' E 003°14'0 0.0
2017-Jun-18 16:59N 51°19' E 003°14'0 0.0
2017-Jun-18 16:29N 51°19' E 003°14'0 0.0
2017-Jun-18 15:59N 51°19' E 003°14'0 0.0
2017-Jun-18 15:29N 51°19' E 003°14'0 0.0
2017-Jun-18 14:59N 51°19' E 003°14'0 0.0
2017-Jun-18 13:59N 51°19' E 003°14'0 0.0
2017-Jun-18 13:29N 51°19' E 003°14'0 0.0
2017-Jun-18 12:59N 51°19' E 003°14'0 0.0
2017-Jun-18 12:29N 51°19' E 003°14'0 0.0
2017-Jun-18 11:59N 51°19' E 003°14'0 0.0
2017-Jun-18 11:29N 51°19' E 003°14'0 0.0
2017-Jun-18 10:59N 51°19' E 003°14'0 0.0
2017-Jun-18 10:29N 51°19' E 003°14'0 0.0
2017-Jun-18 09:59N 51°19' E 003°14'0 0.0
2017-Jun-18 09:29N 51°19' E 003°14'0 0.0
2017-Jun-18 08:59N 51°19' E 003°14'0 0.0
2017-Jun-18 08:29N 51°19' E 003°14'0 0.0
2017-Jun-18 07:59N 51°19' E 003°14'0 0.0
2017-Jun-18 07:29N 51°19' E 003°14'0 0.0
2017-Jun-18 06:59N 51°19' E 003°14'0 0.0
2017-Jun-18 06:29N 51°19' E 003°14'0 0.0
2017-Jun-18 05:59N 51°19' E 003°14'0 0.0
2017-Jun-18 05:29N 51°19' E 003°14'0 0.0
2017-Jun-18 04:59N 51°19' E 003°14'0 0.0
2017-Jun-18 04:26N 51°19' E 003°14'0 0.0
2017-Jun-18 03:59N 51°19' E 003°14'0 0.0
2017-Jun-18 03:29N 51°19' E 003°14'0 0.0
2017-Jun-18 02:59N 51°19' E 003°14'0 0.0
2017-Jun-18 02:29N 51°19' E 003°14'0 0.0
2017-Jun-18 01:59N 51°19' E 003°14'0 0.0
2017-Jun-18 01:29N 51°19' E 003°14'0 0.0
2017-Jun-18 00:59N 51°19' E 003°14'0 0.0
2017-Jun-18 00:29N 51°19' E 003°14'0 0.0
2017-Jun-17 23:59N 51°19' E 003°14'0 0.0
2017-Jun-17 23:29N 51°19' E 003°14'0 0.0
2017-Jun-17 23:00N 51°19' E 003°14'1 2.5
2017-Jun-17 22:30N 51°20' E 003°13'0 0.0
2017-Jun-17 22:00N 51°20' E 003°13'0 0.4
2017-Jun-17 21:30N 51°20' E 003°13'3 5.3
2017-Jun-17 21:00N 51°22' E 003°10'611.0
2017-Jun-17 20:30N 51°24' E 003°02'511.0
2017-Jun-17 20:00N 51°22' E 002°55'5 9.1
2017-Jun-17 19:30N 51°22' E 002°47'5 9.1
2017-Jun-17 19:00N 51°22' E 002°40'4 7.7
2017-Jun-17 18:30N 51°22' E 002°34'3 6.4
2017-Jun-17 18:00N 51°25' E 002°31'4 8.8
2017-Jun-17 17:30N 51°29' E 002°35'510.9
2017-Jun-17 17:00N 51°34' E 002°38'611.0
2017-Jun-17 16:30N 51°39' E 002°39'4718.0
2017-Jun-17 13:52N 52°22' E 003°13'2419.7
2017-Jun-17 12:37N 52°41' E 003°38'519.3
2017-Jun-17 12:21N 52°45' E 003°43'1318.8
2017-Jun-17 11:40N 52°56' E 003°57'318.4
2017-Jun-17 11:29N 52°58' E 004°00'3717.4
2017-Jun-17 09:23N 53°28' E 004°36'717.6
2017-Jun-17 08:59N 53°31' E 004°46'917.9
2017-Jun-17 08:29N 53°34' E 005°00'918.3
2017-Jun-17 07:59N 53°38' E 005°15'10216.5
2017-Jun-17 01:47N 53°49' E 008°07'414.4
2017-Jun-17 01:30N 53°46' E 008°11'714.0
2017-Jun-17 01:00N 53°42' E 008°20'612.0
2017-Jun-17 00:30N 53°38' E 008°28'4 8.4
2017-Jun-17 00:00N 53°34' E 008°32'1 1.0
2017-Jun-16 23:30N 53°34' E 008°33'0 0.5
2017-Jun-16 23:00N 53°34' E 008°33'0 0.5
2017-Jun-16 22:29N 53°35' E 008°33'0 0.0
2017-Jun-16 21:53N 53°35' E 008°33'0 0.0
2017-Jun-16 21:29N 53°35' E 008°33'0 0.0
2017-Jun-16 20:59N 53°35' E 008°33'0 0.0
2017-Jun-16 20:29N 53°35' E 008°33'0 0.0
2017-Jun-16 19:59N 53°35' E 008°33'0 0.0
2017-Jun-16 19:29N 53°35' E 008°33'0 0.0
2017-Jun-16 18:59N 53°35' E 008°33'0 0.0
2017-Jun-16 18:29N 53°35' E 008°33'0 0.0
2017-Jun-16 17:59N 53°35' E 008°33'0 0.0
2017-Jun-16 17:29N 53°35' E 008°33'0 0.0
2017-Jun-16 16:59N 53°35' E 008°33'0 0.0
2017-Jun-16 16:29N 53°35' E 008°33'0 0.0
2017-Jun-16 15:59N 53°35' E 008°33'0 0.0
2017-Jun-16 15:29N 53°35' E 008°33'0 0.0
2017-Jun-16 14:59N 53°35' E 008°33'0 0.0
2017-Jun-16 14:29N 53°35' E 008°33'0 0.0
2017-Jun-16 13:29N 53°35' E 008°33'0 0.0
2017-Jun-16 12:59N 53°35' E 008°33'0 0.0
2017-Jun-16 12:29N 53°35' E 008°33'0 0.0
2017-Jun-16 11:59N 53°35' E 008°33'0 0.0
2017-Jun-16 11:29N 53°35' E 008°33'0 0.0
2017-Jun-16 10:59N 53°35' E 008°33'0 0.0
2017-Jun-16 10:29N 53°35' E 008°33'0 0.0
2017-Jun-16 09:59N 53°35' E 008°33'0 0.0
2017-Jun-16 09:29N 53°35' E 008°33'0 0.0
2017-Jun-16 08:59N 53°35' E 008°33'0 0.0
2017-Jun-16 08:29N 53°35' E 008°33'0 0.0
2017-Jun-16 07:59N 53°35' E 008°33'0 0.0
2017-Jun-16 07:26N 53°35' E 008°33'0 0.0
2017-Jun-16 06:59N 53°35' E 008°33'0 0.0
2017-Jun-16 06:29N 53°35' E 008°33'0 0.0
2017-Jun-16 05:56N 53°35' E 008°33'0 0.0
2017-Jun-16 05:29N 53°35' E 008°33'0 0.0
2017-Jun-16 04:59N 53°35' E 008°33'0 0.0
2017-Jun-16 04:29N 53°35' E 008°33'0 0.0
2017-Jun-16 03:59N 53°35' E 008°33'0 0.0
2017-Jun-16 03:29N 53°35' E 008°33'0 0.0
2017-Jun-16 02:59N 53°35' E 008°33'0 0.0
2017-Jun-16 02:29N 53°35' E 008°33'0 0.0
2017-Jun-16 01:59N 53°35' E 008°33'0 0.0
2017-Jun-16 01:29N 53°35' E 008°33'0 0.0
2017-Jun-16 00:59N 53°35' E 008°33'0 0.5
2017-Jun-16 00:30N 53°34' E 008°33'0 0.5
2017-Jun-16 00:00N 53°34' E 008°33'0 0.8
2017-Jun-15 23:30N 53°34' E 008°33'4 8.6
2017-Jun-15 23:00N 53°37' E 008°28'713.3
2017-Jun-15 22:30N 53°42' E 008°20'714.7
2017-Jun-15 22:00N 53°46' E 008°10'815.6
2017-Jun-15 21:30N 53°51' E 007°60'713.4
2017-Jun-15 21:00N 53°53' E 007°49'4 8.0
2017-Jun-15 20:30N 53°54' E 007°42'5 9.2
2017-Jun-15 20:00N 53°58' E 007°38'5 9.2
2017-Jun-15 19:29N 54°00' E 007°31'3 6.1
2017-Jun-15 18:59N 54°01' E 007°26'1 2.0
2017-Jun-15 18:28N 54°01' E 007°24'0 0.0
2017-Jun-15 07:28N 54°01' E 007°24'0 0.0
2017-Jun-15 06:55N 54°01' E 007°24'0 0.0
2017-Jun-15 06:28N 54°01' E 007°24'69 2.7
2017-Jun-14 04:34N 53°37' E 005°35'216.1
2017-Jun-14 04:25N 53°36' E 005°31'1115.9
2017-Jun-14 03:44N 53°32' E 005°14'815.8
2017-Jun-14 03:15N 53°29' E 005°02'415.9
2017-Jun-14 02:58N 53°27' E 004°55'715.6
2017-Jun-14 02:31N 53°24' E 004°44'816.0
2017-Jun-14 02:00N 53°18' E 004°37'816.0
2017-Jun-14 01:30N 53°11' E 004°30'816.0
2017-Jun-14 01:00N 53°04' E 004°24'816.0
2017-Jun-14 00:30N 52°56' E 004°18'816.0
2017-Jun-14 00:01N 52°49' E 004°12'815.9
2017-Jun-13 23:31N 52°43' E 004°04'815.9
2017-Jun-13 23:00N 52°37' E 003°55'816.0
2017-Jun-13 22:30N 52°31' E 003°46'816.1
2017-Jun-13 22:00N 52°26' E 003°36'816.4
2017-Jun-13 21:31N 52°20' E 003°27'916.6
2017-Jun-13 21:00N 52°14' E 003°17'816.9
2017-Jun-13 20:30N 52°08' E 003°07'817.1
2017-Jun-13 20:01N 52°02' E 002°59'2617.5
2017-Jun-13 18:33N 51°42' E 002°32'417.9
2017-Jun-13 18:20N 51°39' E 002°28'618.0
2017-Jun-13 18:01N 51°35' E 002°22'918.4
2017-Jun-13 17:30N 51°27' E 002°14'918.0
2017-Jun-13 17:01N 51°19' E 002°08'917.9
2017-Jun-13 16:31N 51°12' E 001°59'918.7
2017-Jun-13 16:01N 51°07' E 001°46'1019.2
2017-Jun-13 15:31N 51°00' E 001°35'1019.4
2017-Jun-13 15:01N 50°53' E 001°26'1018.9
2017-Jun-13 14:30N 50°44' E 001°22'3417.3
2017-Jun-13 12:31N 50°26' E 000°36'018.4
2017-Jun-13 12:30N 50°26' E 000°35'918.5
2017-Jun-13 12:00N 50°24' E 000°21'918.9
2017-Jun-13 11:31N 50°21' E 000°07'1019.2
2017-Jun-13 11:01N 50°19' W 000°07'1019.7
2017-Jun-13 10:31N 50°16' W 000°22'1121.0
2017-Jun-13 10:01N 50°14' W 000°38'1121.2
2017-Jun-13 09:31N 50°11' W 000°54'1121.4
2017-Jun-13 09:01N 50°08' W 001°10'1121.6
2017-Jun-13 08:30N 50°05' W 001°27'1121.2
2017-Jun-13 08:01N 50°03' W 001°43'1020.7
2017-Jun-13 07:30N 50°00' W 001°58'1019.9
2017-Jun-13 07:00N 49°57' W 002°13'1119.4
2017-Jun-13 06:27N 49°54' W 002°29'919.0
2017-Jun-13 05:59N 49°52' W 002°42'918.9
2017-Jun-13 05:30N 49°49' W 002°56'918.9
2017-Jun-13 05:00N 49°47' W 003°10'918.7
2017-Jun-13 04:31N 49°45' W 003°24'918.5
2017-Jun-13 04:01N 49°43' W 003°38'1018.5
2017-Jun-13 03:28N 49°40' W 003°53'1418.4
2017-Jun-13 02:44N 49°37' W 004°13'618.5
2017-Jun-13 02:26N 49°36' W 004°22'818.4
2017-Jun-13 02:00N 49°34' W 004°34'918.4
2017-Jun-13 01:30N 49°32' W 004°48'1018.3
2017-Jun-13 00:59N 49°30' W 005°02'918.3
2017-Jun-13 00:30N 49°29' W 005°15'1618.4
2017-Jun-12 23:40N 49°26' W 005°39'318.5
2017-Jun-12 23:31N 49°26' W 005°43'1118.4
2017-Jun-12 22:53N 49°23' W 006°00'818.7
2017-Jun-12 22:27N 49°22' W 006°12'  

Dump ship's entire track history